createdAt,value
2018-11-22T12:15:53.213Z,13.38
2018-11-22T12:18:22.531Z,13.45
2018-11-22T12:20:54.913Z,13.45
2018-11-22T12:23:25.007Z,14.50
2018-11-22T12:25:57.147Z,13.50
2018-11-22T12:28:28.139Z,15.63
2018-11-22T12:31:06.090Z,13.38
2018-11-22T12:33:43.808Z,17.48
2018-11-22T12:36:18.245Z,15.05
2018-11-22T12:38:48.646Z,17.17
2018-11-22T12:41:22.342Z,15.18
2018-11-22T12:43:53.175Z,14.15
2018-11-22T12:46:22.509Z,15.08
2018-11-22T12:48:53.313Z,16.00
2018-11-22T12:51:22.728Z,16.80
2018-11-22T12:53:52.056Z,15.13
2018-11-22T12:56:23.749Z,15.78
2018-11-22T12:58:53.657Z,15.93
2018-11-22T13:01:25.068Z,15.43
2018-11-22T13:03:54.541Z,15.35
2018-11-22T13:06:24.231Z,16.62
2018-11-22T13:08:54.163Z,15.48
2018-11-22T13:11:24.299Z,14.85
2018-11-22T13:13:53.500Z,16.80
2018-11-22T13:16:22.732Z,17.12
2018-11-22T13:18:53.308Z,17.25
2018-11-22T13:21:21.488Z,15.43
2018-11-22T13:23:50.796Z,15.25
2018-11-22T13:26:20.935Z,13.30
2018-11-22T13:28:50.596Z,13.83
2018-11-22T13:31:19.796Z,14.25
2018-11-22T13:33:49.408Z,13.00
2018-11-22T13:36:18.726Z,12.50
2018-11-22T13:38:48.130Z,14.47
2018-11-22T13:41:17.357Z,15.18
2018-11-22T13:43:48.678Z,14.58
2018-11-22T13:46:18.025Z,14.20
2018-11-22T13:48:47.312Z,14.98
2018-11-22T13:51:16.820Z,14.85
2018-11-22T13:53:46.034Z,13.60
2018-11-22T13:56:15.729Z,16.55
2018-11-22T13:58:44.953Z,15.58
2018-11-22T14:01:14.421Z,13.38
2018-11-22T14:03:43.767Z,14.00
2018-11-22T14:06:12.979Z,15.75
2018-11-22T14:08:42.209Z,17.17
2018-11-22T14:11:14.115Z,16.57
2018-11-22T14:13:49.926Z,16.42
2018-11-22T14:16:19.483Z,16.15
2018-11-22T14:18:48.692Z,16.02
2018-11-22T14:21:18.164Z,14.75
2018-11-22T14:23:48.132Z,15.38
2018-11-22T14:26:17.505Z,15.58
2018-11-22T14:28:46.726Z,15.05
2018-11-22T14:31:16.567Z,16.25
2018-11-22T14:33:46.463Z,15.05
2018-11-22T14:36:16.100Z,15.03
2018-11-22T14:38:47.977Z,16.65
2018-11-22T14:41:18.877Z,16.52
2018-11-22T14:43:49.977Z,16.60
2018-11-22T14:46:24.409Z,17.65
2018-11-22T14:48:54.564Z,17.60
2018-11-22T14:51:28.632Z,18.23
2018-11-22T14:53:57.871Z,17.92
2018-11-22T14:56:27.275Z,16.35
2018-11-22T14:58:57.628Z,17.50
2018-11-22T15:01:28.747Z,18.75
2018-11-22T15:03:59.779Z,20.15
2018-11-22T15:06:29.630Z,21.23
2018-11-22T15:09:00.086Z,20.60
2018-11-22T15:11:29.713Z,19.55
2018-11-22T15:13:59.724Z,21.37
2018-11-22T15:16:32.150Z,17.70
2018-11-22T15:19:01.766Z,23.95
2018-11-22T15:21:31.407Z,21.27
2018-11-22T15:24:00.846Z,19.30
2018-11-22T15:26:31.813Z,17.48
2018-11-22T15:29:01.875Z,20.72
2018-11-22T15:31:33.072Z,20.20
2018-11-22T15:34:04.470Z,14.70
2018-11-22T15:36:33.772Z,14.63
2018-11-22T15:39:07.276Z,14.10
2018-11-22T15:41:39.370Z,12.53
2018-11-22T15:44:09.004Z,13.70
2018-11-22T15:46:39.250Z,14.68
2018-11-22T15:49:08.849Z,15.60
2018-11-22T15:51:38.127Z,14.18
2018-11-22T15:54:11.674Z,13.48
2018-11-22T15:56:42.792Z,14.90
2018-11-22T15:59:12.040Z,13.35
2018-11-22T16:01:42.021Z,15.30
2018-11-22T16:04:11.221Z,12.98
2018-11-22T16:06:40.441Z,12.82
2018-11-22T16:09:10.763Z,14.10
2018-11-22T16:11:40.263Z,12.18
2018-11-22T16:14:10.481Z,13.32
2018-11-22T16:16:39.751Z,12.93
2018-11-22T16:19:08.950Z,16.97
2018-11-22T16:22:48.830Z,14.23
2018-11-22T16:25:18.049Z,14.18
2018-11-22T16:27:47.954Z,12.50
2018-11-22T16:30:19.570Z,12.98
2018-11-22T16:32:51.104Z,10.88
2018-11-22T16:35:23.577Z,12.58
2018-11-22T16:37:52.809Z,12.47
2018-11-22T16:40:24.332Z,12.98
2018-11-22T16:42:58.982Z,10.88
2018-11-22T16:45:34.384Z,12.10
2018-11-22T16:48:05.119Z,14.28
2018-11-22T16:50:36.059Z,13.13
2018-11-22T16:53:07.386Z,14.00
2018-11-22T16:55:38.999Z,10.58
2018-11-22T16:58:08.576Z,11.83
2018-11-22T17:00:40.943Z,12.15
2018-11-22T17:03:12.149Z,10.10
2018-11-22T17:05:44.519Z,12.15
2018-11-22T17:08:13.731Z,10.50
2018-11-22T17:10:44.129Z,11.63
2018-11-22T17:13:15.756Z,12.80
2018-11-22T17:15:47.037Z,13.85
2018-11-22T17:18:16.271Z,12.70
2018-11-22T17:20:48.957Z,14.30
2018-11-22T17:23:18.420Z,14.85
2018-11-22T17:25:49.460Z,12.50
2018-11-22T17:28:18.654Z,10.78
2018-11-22T17:30:49.389Z,12.25
2018-11-22T17:33:19.975Z,12.35
2018-11-22T17:35:49.220Z,11.38
2018-11-22T17:38:18.756Z,13.48
2018-11-22T17:40:51.098Z,11.65
2018-11-22T17:43:21.414Z,13.10
2018-11-22T17:45:52.802Z,14.10
2018-11-22T17:48:22.970Z,15.10
2018-11-22T17:50:54.556Z,13.00
2018-11-22T17:53:26.469Z,12.68
2018-11-22T17:55:57.378Z,13.00
2018-11-22T17:58:26.638Z,13.45
2018-11-22T18:01:02.973Z,13.05
2018-11-22T18:03:34.910Z,12.70
2018-11-22T18:06:06.113Z,13.15
2018-11-22T18:08:35.434Z,11.80
2018-11-22T18:11:05.275Z,11.60
2018-11-22T18:13:35.752Z,10.93
2018-11-22T18:16:06.779Z,11.90
2018-11-22T18:18:36.290Z,13.28
2018-11-22T18:21:08.493Z,12.80
2018-11-22T18:23:39.659Z,13.35
2018-11-22T18:26:11.410Z,14.00
2018-11-22T18:28:41.740Z,14.58
2018-11-22T18:31:14.202Z,15.45
2018-11-22T18:33:45.922Z,14.25
2018-11-22T18:36:17.017Z,13.78
2018-11-22T18:38:48.554Z,14.55
2018-11-22T18:41:20.569Z,15.00
2018-11-22T18:43:50.093Z,14.87
2018-11-22T18:46:22.218Z,12.15
2018-11-22T18:48:53.080Z,13.28
2018-11-22T18:51:24.255Z,14.15
2018-11-22T18:53:55.329Z,14.45
2018-11-22T18:56:24.644Z,16.25
2018-11-22T18:58:55.605Z,12.88
2018-11-22T19:01:28.651Z,14.78
2018-11-22T19:03:59.181Z,15.25
2018-11-22T19:06:28.996Z,16.55
2018-11-22T19:08:59.426Z,13.10
2018-11-22T19:11:31.693Z,14.85
2018-11-22T19:14:01.429Z,17.05
2018-11-22T19:16:30.767Z,15.90
2018-11-22T19:19:04.262Z,16.25
2018-11-22T19:21:40.909Z,16.50
2018-11-22T19:24:11.708Z,16.40
2018-11-22T19:26:44.042Z,15.08
2018-11-22T19:29:16.293Z,15.08
2018-11-22T19:31:47.184Z,14.75
2018-11-22T19:34:17.764Z,12.90
2018-11-22T19:36:54.521Z,14.90
2018-11-22T19:39:27.149Z,13.72
2018-11-22T19:41:57.838Z,14.38
2018-11-22T19:44:29.776Z,14.23
2018-11-22T19:46:59.687Z,15.45
2018-11-22T19:49:29.035Z,14.43
2018-11-22T19:52:02.590Z,16.30
2018-11-22T19:54:32.434Z,15.50
2018-11-22T19:57:02.121Z,18.02
2018-11-22T19:59:31.440Z,18.02
2018-11-22T20:02:01.789Z,17.95
2018-11-22T20:04:31.485Z,16.27
2018-11-22T20:07:01.785Z,13.90
2018-11-22T20:09:32.404Z,14.25
2018-11-22T20:12:02.591Z,14.83
2018-11-22T20:14:31.862Z,14.25
2018-11-22T20:17:01.120Z,16.60
2018-11-22T20:19:30.452Z,16.57
2018-11-22T20:22:01.032Z,16.42
2018-11-22T20:24:33.406Z,15.65
2018-11-22T20:27:04.297Z,25.57
2018-11-22T20:29:35.337Z,28.25
2018-11-22T20:32:06.158Z,15.83
2018-11-22T20:34:37.034Z,14.83
2018-11-22T20:37:06.415Z,14.70
2018-11-22T20:39:39.517Z,16.02
2018-11-22T20:42:09.521Z,17.20
2018-11-22T20:44:40.638Z,14.30
2018-11-22T20:47:09.885Z,14.98
2018-11-22T20:49:39.210Z,16.02
2018-11-22T20:52:09.961Z,16.60
2018-11-22T20:54:39.214Z,17.02
2018-11-22T20:57:08.650Z,15.93
2018-11-22T20:59:38.923Z,15.68
2018-11-22T21:02:12.463Z,16.80
2018-11-22T21:04:42.631Z,17.32
2018-11-22T21:07:11.975Z,19.95
2018-11-22T21:09:43.904Z,16.52
2018-11-22T21:12:19.018Z,15.80
2018-11-22T21:14:48.367Z,16.23
2018-11-22T21:17:18.503Z,15.68
2018-11-22T21:19:47.752Z,16.35
2018-11-22T21:22:18.095Z,17.00
2018-11-22T21:24:48.172Z,16.42
2018-11-22T21:27:18.520Z,17.95
2018-11-22T21:29:48.360Z,16.67
2018-11-22T21:32:24.153Z,14.13
2018-11-22T21:34:53.367Z,14.07
2018-11-22T21:37:26.607Z,18.42
2018-11-22T21:39:57.782Z,16.45
2018-11-22T21:42:28.227Z,16.23
2018-11-22T21:44:59.025Z,15.80
2018-11-22T21:47:31.761Z,17.50
2018-11-22T21:50:01.448Z,15.65
2018-11-22T21:52:32.708Z,17.15
2018-11-22T21:55:02.867Z,16.60
2018-11-22T21:57:32.104Z,17.67
2018-11-22T22:00:01.409Z,15.15
2018-11-22T22:02:33.484Z,15.25
2018-11-22T22:05:04.657Z,13.90
2018-11-22T22:07:33.886Z,17.67
2018-11-22T22:10:03.307Z,16.85
2018-11-22T22:12:33.527Z,15.58
2018-11-22T22:15:02.894Z,17.23
2018-11-22T22:17:33.719Z,15.32
2018-11-22T22:20:03.737Z,14.75
2018-11-22T22:22:33.403Z,15.80
2018-11-22T22:25:03.463Z,17.27
2018-11-22T22:27:33.827Z,17.65
2018-11-22T22:30:03.093Z,19.60
2018-11-22T22:32:34.797Z,14.95
2018-11-22T22:35:04.100Z,18.45
2018-11-22T22:37:34.842Z,17.75
2018-11-22T22:40:10.647Z,15.50
2018-11-22T22:42:40.972Z,18.30
2018-11-22T22:45:10.978Z,16.05
2018-11-22T22:47:40.940Z,14.25
2018-11-22T22:50:14.128Z,14.38
2018-11-22T22:52:43.726Z,15.78
2018-11-22T22:55:13.346Z,14.60
2018-11-22T22:57:43.825Z,15.70
2018-11-22T23:00:21.226Z,14.80
2018-11-22T23:02:51.978Z,15.72
2018-11-22T23:05:22.308Z,16.23
2018-11-22T23:07:51.786Z,15.38
2018-11-22T23:10:22.004Z,16.17
2018-11-22T23:12:52.515Z,16.60
2018-11-22T23:15:22.424Z,13.68
2018-11-22T23:17:52.443Z,13.93
2018-11-22T23:20:23.674Z,17.87
2018-11-22T23:22:53.224Z,16.77
2018-11-22T23:25:23.258Z,16.80
2018-11-22T23:27:52.686Z,18.05
2018-11-22T23:30:24.847Z,17.65
2018-11-22T23:32:56.433Z,17.00
2018-11-22T23:35:24.889Z,18.50
2018-11-22T23:37:54.692Z,16.77
2018-11-22T23:40:25.420Z,16.85
2018-11-22T23:42:54.761Z,17.90
2018-11-22T23:45:26.647Z,15.50
2018-11-22T23:47:55.883Z,18.62
2018-11-22T23:50:27.695Z,14.53
2018-11-22T23:52:57.968Z,17.27
2018-11-22T23:55:27.199Z,16.25
2018-11-22T23:57:56.425Z,17.73
